Time;durP1;ratioP1;P1;durP2;ratioP2;P2;SDS_P1;SDS_P2;PMS_P1;PMS_P2;Temp;Humidity;BMP_temperature;BMP_pressure;BME280_temperature;BME280_humidity;BME280_pressure;Samples;Min_cycle;Max_cycle;Signal;HPM_P1;HPM_P2
2022/07/26 00:00:25;;;;;;;2.30;1.47;;;;;;;;;;5011839;28;20467;-77
2022/07/26 00:02:52;;;;;;;1.93;1.10;;;;;;;;;;4999341;28;20787;-77
2022/07/26 00:05:19;;;;;;;2.03;1.50;;;;;;;;;;4997266;28;20446;-77
2022/07/26 00:07:47;;;;;;;2.13;1.53;;;;;;;;;;4992527;28;20483;-77
2022/07/26 00:10:14;;;;;;;3.93;1.30;;;;;;;;;;4993323;28;20538;-75
2022/07/26 00:12:42;;;;;;;3.80;1.40;;;;;;;;;;4993041;28;20444;-76
2022/07/26 00:15:11;;;;;;;3.20;1.27;;;;;;;;;;4993831;28;20447;-76
2022/07/26 00:17:38;;;;;;;3.37;1.53;;;;;;;;;;4985849;28;20554;-76
2022/07/26 00:20:06;;;;;;;1.70;1.33;;;;;;;;;;5015033;28;20795;-77
2022/07/26 00:22:34;;;;;;;2.00;1.60;;;;;;;;;;5012041;28;20524;-76
2022/07/26 00:25:01;;;;;;;1.50;1.30;;;;;;;;;;4981919;28;20925;-76
2022/07/26 00:27:29;;;;;;;2.80;1.33;;;;;;;;;;4996711;28;20455;-76
2022/07/26 00:29:57;;;;;;;3.90;1.57;;;;;;;;;;4993213;28;20800;-76
2022/07/26 00:32:25;;;;;;;3.80;1.67;;;;;;;;;;4992991;28;20439;-76
2022/07/26 00:34:52;;;;;;;9.97;1.67;;;;;;;;;;4992609;28;20967;-77
2022/07/26 00:37:19;;;;;;;1.93;1.40;;;;;;;;;;4993706;28;20828;-76
2022/07/26 00:39:47;;;;;;;3.13;1.50;;;;;;;;;;4993836;28;20526;-76
2022/07/26 00:42:14;;;;;;;1.97;1.40;;;;;;;;;;4995338;28;20812;-76
2022/07/26 00:44:41;;;;;;;3.00;1.70;;;;;;;;;;4995604;28;20519;-75
2022/07/26 00:47:10;;;;;;;3.27;1.40;;;;;;;;;;4998749;28;20558;-76
2022/07/26 00:49:37;;;;;;;9.77;1.80;;;;;;;;;;4997201;28;20480;-76
2022/07/26 00:52:05;;;;;;;4.20;1.60;;;;;;;;;;4992586;28;20432;-76
2022/07/26 00:54:33;;;;;;;6.03;1.67;;;;;;;;;;4975453;28;20454;-76
2022/07/26 00:57:00;;;;;;;3.13;1.93;;;;;;;;;;4975091;28;20821;-76
2022/07/26 00:59:28;;;;;;;5.17;1.80;;;;;;;;;;4975599;28;20474;-77
2022/07/26 01:01:55;;;;;;;4.80;1.73;;;;;;;;;;5001622;28;20443;-76
2022/07/26 01:04:23;;;;;;;2.97;1.77;;;;;;;;;;5014572;28;20926;-76
2022/07/26 01:06:51;;;;;;;3.30;1.73;;;;;;;;;;5012384;28;20465;-74
2022/07/26 01:09:19;;;;;;;3.67;1.60;;;;;;;;;;4998319;28;20577;-73
2022/07/26 01:11:46;;;;;;;4.97;2.00;;;;;;;;;;4997268;28;20410;-75
2022/07/26 01:14:13;;;;;;;4.77;1.83;;;;;;;;;;4991969;28;20414;-76
2022/07/26 01:16:40;;;;;;;7.57;1.70;;;;;;;;;;4992260;28;20443;-75
2022/07/26 01:19:08;;;;;;;2.90;1.60;;;;;;;;;;4992202;28;20454;-75
2022/07/26 01:21:36;;;;;;;2.40;1.43;;;;;;;;;;4992756;28;20513;-76
2022/07/26 01:24:03;;;;;;;4.13;1.60;;;;;;;;;;4992985;28;20435;-76
2022/07/26 01:26:31;;;;;;;3.90;1.90;;;;;;;;;;4994420;28;20450;-76
2022/07/26 01:28:58;;;;;;;5.47;2.07;;;;;;;;;;4994586;28;20458;-76
2022/07/26 01:31:25;;;;;;;3.40;1.90;;;;;;;;;;4998586;28;20405;-75
2022/07/26 01:33:53;;;;;;;7.50;2.00;;;;;;;;;;4983377;28;20788;-76
2022/07/26 01:36:20;;;;;;;9.03;2.27;;;;;;;;;;5010978;28;20460;-76
2022/07/26 01:38:48;;;;;;;4.27;2.13;;;;;;;;;;5011444;28;20450;-75
2022/07/26 01:41:16;;;;;;;4.37;2.00;;;;;;;;;;5011253;28;20418;-76
2022/07/26 01:43:43;;;;;;;3.60;2.10;;;;;;;;;;5012436;28;20427;-77
2022/07/26 01:46:12;;;;;;;4.23;2.03;;;;;;;;;;5011869;28;20474;-76
2022/07/26 01:48:39;;;;;;;2.63;1.60;;;;;;;;;;4996680;28;20974;-76
2022/07/26 01:51:07;;;;;;;2.90;1.67;;;;;;;;;;4995620;28;20425;-76
2022/07/26 01:53:34;;;;;;;3.20;1.90;;;;;;;;;;4997533;28;20445;-76
2022/07/26 01:56:03;;;;;;;4.03;1.90;;;;;;;;;;4997295;28;20455;-75
2022/07/26 01:58:30;;;;;;;5.50;1.70;;;;;;;;;;4991233;28;20772;-76
2022/07/26 02:00:57;;;;;;;8.43;2.00;;;;;;;;;;4991490;28;20477;-76
2022/07/26 02:03:24;;;;;;;8.00;2.90;;;;;;;;;;4991586;28;20443;-75
2022/07/26 02:05:52;;;;;;;6.93;2.57;;;;;;;;;;4992122;28;20790;-76
2022/07/26 02:08:19;;;;;;;6.17;2.00;;;;;;;;;;4992051;28;20999;-76
2022/07/26 02:13:28;;;;;;;2.67;1.90;;;;;;;;;;4979258;28;20911;-75
2022/07/26 02:15:57;;;;;;;5.40;2.00;;;;;;;;;;4997872;28;20461;-75
2022/07/26 02:18:25;;;;;;;4.90;1.87;;;;;;;;;;4996517;28;20622;-76
2022/07/26 02:20:52;;;;;;;4.43;2.10;;;;;;;;;;4991221;28;20538;-75
2022/07/26 02:23:19;;;;;;;2.93;1.90;;;;;;;;;;4991563;28;20448;-76
2022/07/26 02:25:47;;;;;;;7.40;2.40;;;;;;;;;;4991238;28;20442;-76
2022/07/26 02:28:15;;;;;;;9.03;2.20;;;;;;;;;;4992013;28;20932;-75
2022/07/26 02:30:43;;;;;;;6.80;1.80;;;;;;;;;;5000510;28;20429;-75
2022/07/26 02:33:10;;;;;;;5.93;2.20;;;;;;;;;;4999984;28;20447;-76
2022/07/26 02:35:38;;;;;;;3.37;2.33;;;;;;;;;;5015503;28;20969;-77
2022/07/26 02:38:05;;;;;;;4.10;2.27;;;;;;;;;;5001512;28;20418;-76
2022/07/26 02:40:33;;;;;;;5.80;2.40;;;;;;;;;;4986827;28;20439;-76
2022/07/26 02:43:00;;;;;;;8.63;2.80;;;;;;;;;;5014163;28;20512;-75
2022/07/26 02:45:27;;;;;;;5.37;2.30;;;;;;;;;;5014612;28;20561;-75
2022/07/26 02:47:56;;;;;;;5.30;1.93;;;;;;;;;;5014396;28;20962;-75
2022/07/26 02:50:25;;;;;;;2.60;2.07;;;;;;;;;;5015168;28;20822;-76
2022/07/26 02:52:52;;;;;;;6.63;2.27;;;;;;;;;;5014985;28;20830;-77
2022/07/26 02:55:21;;;;;;;5.43;2.20;;;;;;;;;;5016855;28;20431;-76
2022/07/26 02:57:48;;;;;;;4.60;2.20;;;;;;;;;;4997863;28;20448;-76
2022/07/26 03:00:16;;;;;;;3.60;1.90;;;;;;;;;;5000602;28;20466;-76
2022/07/26 03:02:43;;;;;;;5.33;2.53;;;;;;;;;;4982650;28;20947;-75
2022/07/26 03:05:12;;;;;;;4.27;2.53;;;;;;;;;;4994298;28;20809;-76
2022/07/26 03:07:39;;;;;;;4.20;2.23;;;;;;;;;;4994633;28;20438;-76
2022/07/26 03:10:07;;;;;;;5.77;2.40;;;;;;;;;;4994344;28;20490;-75
2022/07/26 03:12:35;;;;;;;5.90;2.27;;;;;;;;;;4995684;28;20424;-76
2022/07/26 03:15:02;;;;;;;4.83;2.23;;;;;;;;;;4985188;28;20509;-77
2022/07/26 03:17:29;;;;;;;7.47;2.27;;;;;;;;;;5016479;28;20545;-76
2022/07/26 03:19:56;;;;;;;6.67;1.90;;;;;;;;;;5016556;28;20443;-76
2022/07/26 03:22:25;;;;;;;4.87;1.90;;;;;;;;;;5000641;28;20406;-75
2022/07/26 03:24:52;;;;;;;5.57;2.43;;;;;;;;;;5001987;28;20434;-76
2022/07/26 03:27:19;;;;;;;6.73;2.33;;;;;;;;;;5013299;28;20466;-76
2022/07/26 03:29:46;;;;;;;8.03;2.40;;;;;;;;;;5013569;28;20486;-77
2022/07/26 03:32:14;;;;;;;3.27;1.90;;;;;;;;;;5013567;28;20443;-76
2022/07/26 03:34:41;;;;;;;2.57;2.00;;;;;;;;;;5014539;28;20443;-76
2022/07/26 03:37:08;;;;;;;3.47;2.03;;;;;;;;;;5014129;28;20473;-76
2022/07/26 03:39:37;;;;;;;4.67;2.63;;;;;;;;;;5016084;28;20428;-75
2022/07/26 03:42:04;;;;;;;4.70;2.30;;;;;;;;;;5015010;28;20525;-76
2022/07/26 03:44:31;;;;;;;3.83;2.23;;;;;;;;;;5000228;28;20435;-76
2022/07/26 03:46:59;;;;;;;4.60;2.20;;;;;;;;;;4999834;28;20807;-76
2022/07/26 03:49:26;;;;;;;6.90;2.47;;;;;;;;;;4993364;28;20484;-76
2022/07/26 03:51:54;;;;;;;7.37;2.17;;;;;;;;;;4993801;28;20421;-76
2022/07/26 03:54:21;;;;;;;5.80;2.83;;;;;;;;;;4993499;28;20452;-75
2022/07/26 03:56:49;;;;;;;6.10;2.63;;;;;;;;;;4994280;28;20456;-76
2022/07/26 03:59:16;;;;;;;4.23;1.83;;;;;;;;;;4997809;28;20483;-75
2022/07/26 04:01:43;;;;;;;4.40;2.53;;;;;;;;;;5015655;28;20437;-75
2022/07/26 04:04:12;;;;;;;6.50;2.80;;;;;;;;;;5015641;28;20435;-76
2022/07/26 04:06:40;;;;;;;3.67;2.07;;;;;;;;;;5000396;28;20950;-75
2022/07/26 04:09:07;;;;;;;3.60;1.90;;;;;;;;;;4999738;28;20487;-76
2022/07/26 04:11:34;;;;;;;4.57;2.40;;;;;;;;;;4995242;28;20443;-75
2022/07/26 04:14:03;;;;;;;6.10;2.50;;;;;;;;;;5013007;28;20449;-75
2022/07/26 04:16:30;;;;;;;4.33;2.20;;;;;;;;;;5010192;28;20675;-76
2022/07/26 04:18:58;;;;;;;4.30;2.10;;;;;;;;;;5007242;28;20421;-75
2022/07/26 04:21:25;;;;;;;5.13;2.70;;;;;;;;;;5012874;28;20573;-77
2022/07/26 04:23:52;;;;;;;5.60;2.43;;;;;;;;;;5015302;28;20478;-76
2022/07/26 04:26:20;;;;;;;4.83;2.43;;;;;;;;;;5015196;28;20967;-76
2022/07/26 04:28:47;;;;;;;7.90;2.40;;;;;;;;;;4983708;28;20431;-75
2022/07/26 04:31:16;;;;;;;5.03;2.70;;;;;;;;;;4999269;28;20410;-75
2022/07/26 04:33:43;;;;;;;4.93;2.47;;;;;;;;;;4992803;28;20984;-76
2022/07/26 04:36:10;;;;;;;3.00;2.33;;;;;;;;;;4992857;28;20505;-76
2022/07/26 04:38:37;;;;;;;6.33;2.60;;;;;;;;;;4993438;28;20850;-76
2022/07/26 04:41:05;;;;;;;9.47;3.23;;;;;;;;;;4993405;28;20455;-76
2022/07/26 04:43:32;;;;;;;5.00;2.33;;;;;;;;;;4996020;28;20989;-76
2022/07/26 04:45:59;;;;;;;4.37;2.50;;;;;;;;;;5014856;28;20467;-76
2022/07/26 04:48:28;;;;;;;5.27;2.77;;;;;;;;;;5014597;28;20443;-76
2022/07/26 04:50:55;;;;;;;3.67;2.60;;;;;;;;;;5000190;28;20482;-77
2022/07/26 04:53:22;;;;;;;3.03;1.80;;;;;;;;;;4998639;28;20805;-75
2022/07/26 04:55:49;;;;;;;4.90;3.00;;;;;;;;;;4992312;28;20456;-76
2022/07/26 04:58:17;;;;;;;9.00;2.73;;;;;;;;;;4992541;28;20423;-75
2022/07/26 05:00:44;;;;;;;5.13;3.00;;;;;;;;;;4992639;28;20467;-76
2022/07/26 05:03:11;;;;;;;7.63;3.20;;;;;;;;;;4992523;28;20979;-76
2022/07/26 05:05:39;;;;;;;6.50;3.17;;;;;;;;;;4995206;28;20890;-76
2022/07/26 05:08:07;;;;;;;5.17;2.67;;;;;;;;;;5014456;28;20932;-76
2022/07/26 05:10:35;;;;;;;6.13;2.73;;;;;;;;;;5014664;28;20995;-76
2022/07/26 05:13:02;;;;;;;6.80;3.13;;;;;;;;;;5001582;28;20439;-76
2022/07/26 05:15:30;;;;;;;5.37;3.10;;;;;;;;;;4998191;28;20515;-77
2022/07/26 05:18:01;;;;;;;7.90;2.90;;;;;;;;;;5010702;28;20554;-77
2022/07/26 05:20:28;;;;;;;6.67;3.23;;;;;;;;;;5012071;28;21160;-77
2022/07/26 05:22:57;;;;;;;4.70;2.67;;;;;;;;;;5012318;28;20432;-76
2022/07/26 05:25:24;;;;;;;6.20;3.57;;;;;;;;;;5011877;28;20963;-75
2022/07/26 05:27:52;;;;;;;9.57;3.40;;;;;;;;;;4994010;28;20546;-76
2022/07/26 05:30:19;;;;;;;5.50;3.60;;;;;;;;;;5014083;28;20485;-77
2022/07/26 05:32:46;;;;;;;5.90;2.83;;;;;;;;;;5014346;28;20458;-78
2022/07/26 05:35:13;;;;;;;9.07;3.53;;;;;;;;;;5001869;28;21123;-77
2022/07/26 05:37:42;;;;;;;6.93;3.10;;;;;;;;;;4997758;28;20450;-75
2022/07/26 05:40:11;;;;;;;6.50;3.63;;;;;;;;;;4992650;28;20444;-75
2022/07/26 05:42:38;;;;;;;7.50;3.60;;;;;;;;;;4991831;28;20454;-76
2022/07/26 05:45:06;;;;;;;10.10;3.50;;;;;;;;;;4992362;28;20462;-76
2022/07/26 05:47:33;;;;;;;7.90;3.90;;;;;;;;;;4991950;28;20459;-76
2022/07/26 05:50:00;;;;;;;6.57;3.70;;;;;;;;;;4991622;28;20476;-76
2022/07/26 05:52:27;;;;;;;10.50;4.30;;;;;;;;;;4994486;28;20436;-77
2022/07/26 05:54:54;;;;;;;7.17;3.10;;;;;;;;;;4977230;28;20498;-75
2022/07/26 05:57:23;;;;;;;4.57;3.03;;;;;;;;;;4996734;28;20979;-76
2022/07/26 05:59:50;;;;;;;9.80;3.80;;;;;;;;;;4987982;28;20517;-76
2022/07/26 06:02:17;;;;;;;5.27;3.20;;;;;;;;;;4991235;28;20436;-77
2022/07/26 06:04:45;;;;;;;9.93;4.40;;;;;;;;;;4991933;28;20454;-76
2022/07/26 06:07:12;;;;;;;8.23;3.97;;;;;;;;;;4995345;28;20463;-75
2022/07/26 06:09:39;;;;;;;8.47;4.10;;;;;;;;;;4995733;28;20483;-77
2022/07/26 06:12:07;;;;;;;8.37;4.47;;;;;;;;;;4995488;28;20446;-75
2022/07/26 06:14:35;;;;;;;9.70;4.10;;;;;;;;;;4998676;28;21004;-76
2022/07/26 06:17:04;;;;;;;12.70;4.60;;;;;;;;;;4998062;28;20459;-79
2022/07/26 06:19:31;;;;;;;12.40;4.87;;;;;;;;;;4994554;28;20428;-76
2022/07/26 06:21:59;;;;;;;7.10;3.97;;;;;;;;;;4984277;28;20475;-77
2022/07/26 06:24:26;;;;;;;6.97;4.37;;;;;;;;;;5009956;28;20472;-77
2022/07/26 06:26:54;;;;;;;9.97;4.60;;;;;;;;;;5015290;28;20830;-75
2022/07/26 06:29:21;;;;;;;9.33;4.20;;;;;;;;;;5015310;28;20541;-80
2022/07/26 06:31:50;;;;;;;5.07;3.90;;;;;;;;;;5014825;28;20542;-80
2022/07/26 06:34:17;;;;;;;8.37;4.10;;;;;;;;;;5015453;28;20887;-79
2022/07/26 06:36:53;;;;;;;8.53;4.47;;;;;;;;;;5016182;28;20577;-77
2022/07/26 06:39:21;;;;;;;7.63;4.33;;;;;;;;;;5017609;28;20439;-76
2022/07/26 06:41:48;;;;;;;7.57;4.60;;;;;;;;;;5011600;28;20854;-75
2022/07/26 06:44:15;;;;;;;10.87;4.57;;;;;;;;;;5001621;28;20435;-74
2022/07/26 06:46:42;;;;;;;10.93;4.97;;;;;;;;;;4998236;28;20684;-76
2022/07/26 06:49:11;;;;;;;5.77;4.50;;;;;;;;;;4995226;28;20686;-75
2022/07/26 06:51:38;;;;;;;7.57;4.80;;;;;;;;;;4994652;28;20491;-76
2022/07/26 06:54:05;;;;;;;9.20;4.80;;;;;;;;;;4994742;28;20448;-74
2022/07/26 06:56:32;;;;;;;6.43;4.33;;;;;;;;;;4995740;28;20471;-74
2022/07/26 06:59:00;;;;;;;9.30;4.70;;;;;;;;;;5008808;28;20469;-75
2022/07/26 07:01:27;;;;;;;10.53;4.80;;;;;;;;;;5016641;28;20486;-76
2022/07/26 07:03:54;;;;;;;10.07;4.80;;;;;;;;;;5014563;28;20445;-74
2022/07/26 07:06:23;;;;;;;9.20;5.00;;;;;;;;;;4990691;28;20566;-76
2022/07/26 07:08:50;;;;;;;8.07;4.90;;;;;;;;;;4998812;28;20843;-74
2022/07/26 07:11:18;;;;;;;9.10;5.10;;;;;;;;;;4994311;28;20840;-75
2022/07/26 07:13:45;;;;;;;10.83;5.17;;;;;;;;;;4994555;28;20542;-76
2022/07/26 07:16:12;;;;;;;8.27;4.73;;;;;;;;;;4993986;28;20468;-75
2022/07/26 07:18:39;;;;;;;14.63;5.63;;;;;;;;;;4995032;28;20796;-74
2022/07/26 07:21:06;;;;;;;10.83;5.00;;;;;;;;;;4995528;28;20470;-75
2022/07/26 07:23:35;;;;;;;12.67;5.40;;;;;;;;;;4996802;28;20872;-75
2022/07/26 07:26:02;;;;;;;10.13;5.57;;;;;;;;;;4996672;28;20472;-75
2022/07/26 07:28:32;;;;;;;6.93;4.43;;;;;;;;;;5000063;28;20423;-74
2022/07/26 07:30:59;;;;;;;8.83;4.63;;;;;;;;;;5000043;28;20478;-76
2022/07/26 07:33:26;;;;;;;15.07;5.10;;;;;;;;;;4993683;28;20543;-75
2022/07/26 07:35:54;;;;;;;8.97;5.03;;;;;;;;;;4994205;28;20933;-75
2022/07/26 07:38:21;;;;;;;12.80;5.70;;;;;;;;;;4993814;28;20451;-77
2022/07/26 07:40:50;;;;;;;13.03;5.20;;;;;;;;;;4994716;28;20475;-76
2022/07/26 07:43:17;;;;;;;12.47;6.30;;;;;;;;;;4999739;28;20446;-77
2022/07/26 07:45:45;;;;;;;14.00;5.83;;;;;;;;;;5015682;28;20542;-75
2022/07/26 07:48:12;;;;;;;9.23;5.70;;;;;;;;;;5016097;28;20871;-76
2022/07/26 07:50:39;;;;;;;9.77;7.03;;;;;;;;;;5004786;28;20481;-76
2022/07/26 07:53:06;;;;;;;16.03;7.80;;;;;;;;;;4999838;28;20805;-75
2022/07/26 07:55:33;;;;;;;8.50;6.30;;;;;;;;;;4995075;28;20530;-75
2022/07/26 07:58:02;;;;;;;10.00;6.50;;;;;;;;;;4993617;28;20460;-75
2022/07/26 08:00:29;;;;;;;10.57;6.87;;;;;;;;;;4993567;28;20468;-75
2022/07/26 08:02:56;;;;;;;13.53;7.13;;;;;;;;;;4993868;28;20445;-75
2022/07/26 08:05:23;;;;;;;9.80;7.13;;;;;;;;;;4993582;28;20439;-75
2022/07/26 08:07:51;;;;;;;8.93;6.00;;;;;;;;;;4995746;28;20471;-76
2022/07/26 08:10:18;;;;;;;11.60;6.87;;;;;;;;;;4995903;28;20483;-75
2022/07/26 08:12:45;;;;;;;13.20;6.80;;;;;;;;;;4997180;28;20913;-74
2022/07/26 08:15:14;;;;;;;10.37;5.67;;;;;;;;;;4999617;28;20677;-75
2022/07/26 08:17:41;;;;;;;8.97;7.03;;;;;;;;;;4996275;28;20816;-74
2022/07/26 08:20:08;;;;;;;10.90;6.50;;;;;;;;;;4993527;28;21008;-75
2022/07/26 08:22:36;;;;;;;11.60;6.53;;;;;;;;;;4993170;28;20449;-75
2022/07/26 08:25:03;;;;;;;10.50;6.83;;;;;;;;;;4992866;28;20444;-75
2022/07/26 08:27:30;;;;;;;12.93;9.03;;;;;;;;;;4993882;28;20495;-75
2022/07/26 08:29:57;;;;;;;11.50;8.00;;;;;;;;;;5007389;28;20534;-75
2022/07/26 08:32:26;;;;;;;12.60;8.60;;;;;;;;;;5015285;28;21003;-75
2022/07/26 08:34:53;;;;;;;14.03;9.33;;;;;;;;;;5013674;28;20443;-76
2022/07/26 08:37:20;;;;;;;13.30;10.83;;;;;;;;;;4999256;28;21818;-75
2022/07/26 08:39:48;;;;;;;18.43;11.13;;;;;;;;;;4998106;28;20432;-77
2022/07/26 08:42:15;;;;;;;13.33;9.40;;;;;;;;;;4975348;28;20883;-78
2022/07/26 08:44:44;;;;;;;15.07;10.10;;;;;;;;;;4975814;28;20466;-77
2022/07/26 08:47:12;;;;;;;15.80;10.10;;;;;;;;;;4992747;28;20463;-76
2022/07/26 08:49:40;;;;;;;12.60;8.70;;;;;;;;;;4993692;28;20448;-78
2022/07/26 08:52:07;;;;;;;15.67;9.80;;;;;;;;;;4993515;28;20494;-80
2022/07/26 08:54:35;;;;;;;10.57;8.10;;;;;;;;;;4994955;28;20448;-76
2022/07/26 08:57:02;;;;;;;9.67;8.60;;;;;;;;;;4995487;28;20460;-76
2022/07/26 08:59:30;;;;;;;14.60;8.83;;;;;;;;;;4997800;28;20482;-77
2022/07/26 09:01:58;;;;;;;10.13;7.80;;;;;;;;;;4998632;28;20436;-75
2022/07/26 09:04:27;;;;;;;12.03;7.90;;;;;;;;;;4992709;28;20451;-77
2022/07/26 09:06:57;;;;;;;13.33;8.93;;;;;;;;;;4992383;28;20467;-77
2022/07/26 09:09:25;;;;;;;11.57;7.87;;;;;;;;;;4992068;28;20924;-77
2022/07/26 09:11:52;;;;;;;14.10;8.13;;;;;;;;;;4992964;28;20502;-76
2022/07/26 09:14:19;;;;;;;11.97;7.97;;;;;;;;;;4996639;28;20880;-76
2022/07/26 09:16:57;;;;;;;11.07;9.13;;;;;;;;;;5014231;28;21063;-77
2022/07/26 09:19:24;;;;;;;10.47;7.80;;;;;;;;;;5014299;28;20439;-77
2022/07/26 09:21:51;;;;;;;10.67;7.40;;;;;;;;;;4985195;28;20436;-77
2022/07/26 09:24:32;;;;;;;10.53;7.73;;;;;;;;;;4981003;28;20428;-77
2022/07/26 09:27:00;;;;;;;8.23;6.50;;;;;;;;;;4992275;28;20872;-76
2022/07/26 09:29:28;;;;;;;9.57;7.10;;;;;;;;;;4975176;28;20456;-76
2022/07/26 09:32:09;;;;;;;8.70;6.13;;;;;;;;;;4974950;28;20892;-78
2022/07/26 09:34:36;;;;;;;8.57;6.67;;;;;;;;;;4975792;28;20436;-78
2022/07/26 09:37:03;;;;;;;8.37;6.97;;;;;;;;;;4992437;28;20570;-77
2022/07/26 09:39:32;;;;;;;11.93;7.10;;;;;;;;;;4994309;28;20444;-78
2022/07/26 09:41:59;;;;;;;10.77;5.83;;;;;;;;;;4994312;28;20503;-77
2022/07/26 09:44:28;;;;;;;8.33;6.23;;;;;;;;;;4996306;28;20439;-77
2022/07/26 09:46:56;;;;;;;9.77;7.13;;;;;;;;;;4997887;28;20460;-77
2022/07/26 09:49:24;;;;;;;11.47;7.67;;;;;;;;;;4993345;28;20539;-77
2022/07/26 09:51:52;;;;;;;8.50;6.70;;;;;;;;;;4991832;28;20935;-78
2022/07/26 09:54:20;;;;;;;7.47;6.40;;;;;;;;;;4974905;28;20531;-76
2022/07/26 09:56:50;;;;;;;16.70;6.70;;;;;;;;;;4991951;28;21031;-77
2022/07/26 09:59:18;;;;;;;8.77;6.07;;;;;;;;;;4991618;28;20479;-74
2022/07/26 10:01:46;;;;;;;8.10;6.30;;;;;;;;;;4977056;28;20472;-76
2022/07/26 10:04:13;;;;;;;9.00;6.60;;;;;;;;;;4977075;28;20444;-75
2022/07/26 10:06:41;;;;;;;9.50;5.97;;;;;;;;;;4991130;28;20460;-75
2022/07/26 10:09:09;;;;;;;9.20;5.40;;;;;;;;;;4978764;28;20439;-75
2022/07/26 10:11:39;;;;;;;12.53;6.10;;;;;;;;;;4984036;28;20497;-75
2022/07/26 10:14:21;;;;;;;6.67;6.00;;;;;;;;;;4991856;28;20446;-75
2022/07/26 10:16:49;;;;;;;6.97;5.43;;;;;;;;;;4990831;28;20544;-76
2022/07/26 10:19:31;;;;;;;8.33;5.00;;;;;;;;;;4991560;28;20889;-76
2022/07/26 10:22:13;;;;;;;9.87;5.40;;;;;;;;;;4976258;28;20456;-76
2022/07/26 10:24:40;;;;;;;6.17;5.13;;;;;;;;;;4979165;28;20450;-75
2022/07/26 10:27:08;;;;;;;7.60;5.27;;;;;;;;;;4993676;28;20514;-75
2022/07/26 10:29:35;;;;;;;12.63;5.30;;;;;;;;;;4990816;28;20789;-75
2022/07/26 10:32:19;;;;;;;7.40;4.97;;;;;;;;;;4987467;28;20989;-77
2022/07/26 10:34:47;;;;;;;10.00;4.90;;;;;;;;;;4978037;28;20439;-77
2022/07/26 10:37:26;;;;;;;8.13;4.70;;;;;;;;;;4991480;28;20502;-75
2022/07/26 10:40:15;;;;;;;10.07;4.60;;;;;;;;;;4974517;28;20436;-77
2022/07/26 10:42:44;;;;;;;12.80;3.90;;;;;;;;;;4976992;28;20462;-76
2022/07/26 10:45:17;;;;;;;8.63;4.47;;;;;;;;;;4977215;28;20527;-76
2022/07/26 10:48:09;;;;;;;8.30;4.57;;;;;;;;;;5013270;28;20473;-75
2022/07/26 10:50:36;;;;;;;6.93;3.97;;;;;;;;;;4996134;28;20473;-76
2022/07/26 10:53:04;;;;;;;5.30;3.70;;;;;;;;;;5003345;28;20494;-78
2022/07/26 10:55:31;;;;;;;6.37;4.23;;;;;;;;;;4983687;28;20450;-77
2022/07/26 10:58:00;;;;;;;7.13;4.30;;;;;;;;;;5012696;28;20485;-77
2022/07/26 11:00:27;;;;;;;6.30;4.00;;;;;;;;;;5014079;28;20776;-77
2022/07/26 11:02:56;;;;;;;5.93;3.80;;;;;;;;;;5014588;28;20533;-76
2022/07/26 11:05:27;;;;;;;5.03;4.40;;;;;;;;;;5014898;28;20469;-75
2022/07/26 11:07:57;;;;;;;8.80;5.03;;;;;;;;;;5014059;28;20900;-75
2022/07/26 11:10:25;;;;;;;7.63;3.83;;;;;;;;;;5016788;28;20451;-76
2022/07/26 11:13:05;;;;;;;6.53;4.20;;;;;;;;;;5016544;28;20483;-76
2022/07/26 11:15:32;;;;;;;3.93;3.40;;;;;;;;;;4988505;28;20514;-75
2022/07/26 11:18:08;;;;;;;6.07;3.40;;;;;;;;;;4983039;28;20805;-76
2022/07/26 11:20:35;;;;;;;5.00;3.60;;;;;;;;;;4993590;28;20440;-77
2022/07/26 11:23:02;;;;;;;3.70;3.13;;;;;;;;;;4994531;28;20462;-75
2022/07/26 11:25:29;;;;;;;4.03;3.00;;;;;;;;;;4994787;28;20440;-75
2022/07/26 11:28:00;;;;;;;4.73;3.47;;;;;;;;;;4994320;28;20558;-76
2022/07/26 11:30:29;;;;;;;11.27;3.13;;;;;;;;;;4994385;28;20539;-76
2022/07/26 11:32:58;;;;;;;5.90;4.00;;;;;;;;;;4979417;28;20578;-76
2022/07/26 11:35:26;;;;;;;4.40;3.30;;;;;;;;;;4979692;28;20948;-76
2022/07/26 11:37:54;;;;;;;6.87;3.50;;;;;;;;;;4983784;28;20458;-75
2022/07/26 11:40:36;;;;;;;6.30;3.23;;;;;;;;;;5000193;28;20436;-74
2022/07/26 11:43:03;;;;;;;5.67;3.70;;;;;;;;;;4980261;28;20538;-76
2022/07/26 11:45:31;;;;;;;6.63;3.60;;;;;;;;;;4994070;28;20877;-76
2022/07/26 11:47:59;;;;;;;6.77;3.80;;;;;;;;;;4994312;28;20474;-75
2022/07/26 11:50:26;;;;;;;7.03;3.73;;;;;;;;;;4993977;28;20440;-76
2022/07/26 11:52:53;;;;;;;4.60;3.70;;;;;;;;;;4994186;28;20493;-76
2022/07/26 11:55:26;;;;;;;7.50;4.30;;;;;;;;;;4995619;28;20558;-75
2022/07/26 11:57:53;;;;;;;5.53;4.43;;;;;;;;;;4995839;28;20494;-75
2022/07/26 12:00:21;;;;;;;6.80;4.20;;;;;;;;;;4997346;28;20548;-75
2022/07/26 12:02:49;;;;;;;7.80;4.97;;;;;;;;;;4981833;28;20526;-77
2022/07/26 12:05:18;;;;;;;5.13;4.73;;;;;;;;;;4995882;28;20937;-75
2022/07/26 12:08:01;;;;;;;8.67;5.30;;;;;;;;;;4976452;28;20590;-75
2022/07/26 12:10:29;;;;;;;5.23;4.70;;;;;;;;;;4978696;28;20494;-75
2022/07/26 12:13:11;;;;;;;5.03;4.53;;;;;;;;;;4993428;28;20494;-76
2022/07/26 12:15:46;;;;;;;4.00;3.60;;;;;;;;;;4978501;28;20454;-76
2022/07/26 12:18:23;;;;;;;4.97;4.03;;;;;;;;;;4995671;28;20443;-77
2022/07/26 12:21:05;;;;;;;4.90;3.73;;;;;;;;;;4995743;28;20444;-75
2022/07/26 12:23:40;;;;;;;3.73;3.20;;;;;;;;;;4976914;28;20444;-79
2022/07/26 12:26:24;;;;;;;6.60;3.67;;;;;;;;;;4998732;28;20447;-76
2022/07/26 12:28:51;;;;;;;4.10;3.47;;;;;;;;;;4978882;28;20862;-78
2022/07/26 12:31:26;;;;;;;4.00;3.40;;;;;;;;;;4992840;28;20450;-76
2022/07/26 12:33:55;;;;;;;3.53;3.30;;;;;;;;;;4993644;28;20432;-77
2022/07/26 12:36:23;;;;;;;5.70;3.40;;;;;;;;;;4993305;28;20985;-76
2022/07/26 12:38:51;;;;;;;3.77;3.33;;;;;;;;;;4993273;28;20799;-77
2022/07/26 12:41:31;;;;;;;4.07;3.70;;;;;;;;;;4995279;28;20627;-78
2022/07/26 12:43:59;;;;;;;3.60;3.30;;;;;;;;;;4995356;28;20558;-76
2022/07/26 12:46:26;;;;;;;4.60;3.40;;;;;;;;;;4997713;28;20461;-76
2022/07/26 12:48:54;;;;;;;3.63;3.10;;;;;;;;;;4998979;28;20462;-76
2022/07/26 12:51:22;;;;;;;3.20;2.87;;;;;;;;;;4993940;28;20476;-74
2022/07/26 12:53:49;;;;;;;3.17;2.30;;;;;;;;;;4992848;28;20804;-75
2022/07/26 12:56:16;;;;;;;6.83;3.47;;;;;;;;;;4993127;28;20567;-76
2022/07/26 12:58:44;;;;;;;4.60;2.90;;;;;;;;;;4992729;28;20793;-77
2022/07/26 13:01:11;;;;;;;6.60;3.30;;;;;;;;;;4993028;28;20442;-76
2022/07/26 13:03:39;;;;;;;3.27;2.97;;;;;;;;;;4994865;28;20462;-76
2022/07/26 13:06:07;;;;;;;4.00;3.40;;;;;;;;;;4995202;28;20468;-76
2022/07/26 13:08:35;;;;;;;4.53;3.00;;;;;;;;;;4991813;28;20440;-75
2022/07/26 13:11:02;;;;;;;5.47;3.30;;;;;;;;;;4988715;28;20443;-78
2022/07/26 13:13:30;;;;;;;7.23;3.50;;;;;;;;;;5005277;28;20475;-75
2022/07/26 13:15:57;;;;;;;6.77;4.43;;;;;;;;;;4994463;28;20459;-77
2022/07/26 13:18:24;;;;;;;5.20;3.47;;;;;;;;;;5012085;28;20445;-78
2022/07/26 13:20:52;;;;;;;5.07;3.90;;;;;;;;;;5011749;28;20804;-78
2022/07/26 13:23:20;;;;;;;7.83;4.27;;;;;;;;;;5012179;28;20514;-77
2022/07/26 13:25:47;;;;;;;6.00;3.30;;;;;;;;;;5013042;28;20886;-81
2022/07/26 13:28:15;;;;;;;4.43;3.50;;;;;;;;;;5014891;28;20471;-76
2022/07/26 13:30:42;;;;;;;3.97;3.17;;;;;;;;;;5009364;28;20436;-82
2022/07/26 13:33:10;;;;;;;4.40;3.37;;;;;;;;;;4997899;28;20569;-79
2022/07/26 13:35:38;;;;;;;2.50;2.30;;;;;;;;;;5003017;28;20509;-77
2022/07/26 13:38:05;;;;;;;4.33;2.20;;;;;;;;;;5011808;28;21006;-78
2022/07/26 13:40:34;;;;;;;4.67;2.27;;;;;;;;;;5011616;28;20814;-79
2022/07/26 13:43:01;;;;;;;4.90;2.40;;;;;;;;;;5011322;28;20461;-81
2022/07/26 13:45:28;;;;;;;4.13;2.00;;;;;;;;;;5012343;28;20442;-78
2022/07/26 13:47:56;;;;;;;3.23;1.80;;;;;;;;;;5012622;28;20473;-79
2022/07/26 13:50:23;;;;;;;2.50;2.30;;;;;;;;;;5013735;28;20450;-77
2022/07/26 13:52:50;;;;;;;3.90;2.50;;;;;;;;;;5011548;28;20529;-81
2022/07/26 13:55:17;;;;;;;2.70;2.50;;;;;;;;;;4998178;28;20982;-78
2022/07/26 13:57:46;;;;;;;3.90;2.93;;;;;;;;;;5000898;28;20470;-77
2022/07/26 14:00:13;;;;;;;4.10;2.90;;;;;;;;;;5011339;28;20689;-78
2022/07/26 14:02:41;;;;;;;5.30;2.90;;;;;;;;;;5011073;28;20541;-78
2022/07/26 14:05:09;;;;;;;3.00;2.40;;;;;;;;;;5011271;28;20478;-79
2022/07/26 14:07:36;;;;;;;2.97;2.30;;;;;;;;;;5011902;28;20455;-76
2022/07/26 14:10:04;;;;;;;4.50;2.70;;;;;;;;;;5011856;28;20638;-75
2022/07/26 14:12:31;;;;;;;2.90;2.60;;;;;;;;;;5013499;28;20493;-77
2022/07/26 14:15:00;;;;;;;2.73;2.47;;;;;;;;;;5013670;28;20441;-78
2022/07/26 14:17:27;;;;;;;4.40;2.40;;;;;;;;;;4997245;28;20458;-80
2022/07/26 14:19:54;;;;;;;4.10;3.50;;;;;;;;;;4997421;28;20443;-77
2022/07/26 14:22:21;;;;;;;4.13;3.50;;;;;;;;;;4990946;28;20454;-78
2022/07/26 14:24:48;;;;;;;5.90;3.20;;;;;;;;;;4991659;28;20443;-78
2022/07/26 14:27:16;;;;;;;5.37;3.43;;;;;;;;;;4992913;28;20961;-80
2022/07/26 14:29:44;;;;;;;3.93;3.63;;;;;;;;;;4996041;28;20858;-77
2022/07/26 14:32:13;;;;;;;3.20;2.90;;;;;;;;;;5002484;28;20443;-77
2022/07/26 14:34:40;;;;;;;3.97;3.50;;;;;;;;;;5017901;28;20439;-77
2022/07/26 14:37:08;;;;;;;4.70;2.63;;;;;;;;;;5016326;28;20805;-77
2022/07/26 14:39:35;;;;;;;5.10;2.57;;;;;;;;;;4984132;28;20569;-77
2022/07/26 14:42:02;;;;;;;3.97;2.77;;;;;;;;;;5003807;28;20434;-76
2022/07/26 14:44:30;;;;;;;2.03;1.73;;;;;;;;;;5014348;28;20449;-77
2022/07/26 14:46:57;;;;;;;3.10;1.93;;;;;;;;;;5014888;28;20577;-77
2022/07/26 14:49:25;;;;;;;3.03;2.07;;;;;;;;;;5014440;28;20435;-77